createdAt,value
2018-11-28T00:00:31.874Z,1.20
2018-11-28T00:03:01.359Z,1.10
2018-11-28T00:05:29.831Z,1.30
2018-11-28T00:07:58.219Z,0.60
2018-11-28T00:10:29.771Z,1.10
2018-11-28T00:12:58.209Z,0.90
2018-11-28T00:15:26.611Z,0.80
2018-11-28T00:17:55.028Z,1.30
2018-11-28T00:20:23.911Z,1.50
2018-11-28T00:22:52.395Z,1.30
2018-11-28T00:25:20.905Z,1.40
2018-11-28T00:27:49.300Z,1.60
2018-11-28T00:30:22.652Z,1.30
2018-11-28T00:32:51.109Z,1.30
2018-11-28T00:35:20.555Z,1.40
2018-11-28T00:37:48.982Z,1.20
2018-11-28T00:40:19.010Z,1.30
2018-11-28T00:42:47.439Z,1.40
2018-11-28T00:45:17.108Z,1.10
2018-11-28T00:47:45.538Z,1.00
2018-11-28T00:50:21.066Z,1.00
2018-11-28T00:52:49.522Z,1.00
2018-11-28T00:55:18.207Z,1.00
2018-11-28T00:57:46.751Z,1.10
2018-11-28T01:00:17.139Z,1.10
2018-11-28T01:02:45.741Z,1.10
2018-11-28T01:05:14.543Z,1.10
2018-11-28T01:07:50.376Z,1.20
2018-11-28T01:10:20.949Z,1.20
2018-11-28T01:12:49.835Z,1.20
2018-11-28T01:15:18.838Z,1.20
2018-11-28T01:17:47.267Z,1.10
2018-11-28T01:20:20.509Z,1.10
2018-11-28T01:22:48.958Z,1.10
2018-11-28T01:25:18.294Z,1.10
2018-11-28T01:27:46.811Z,1.20
2018-11-28T01:30:18.065Z,1.10
2018-11-28T01:32:46.614Z,1.10
2018-11-28T01:35:16.266Z,0.90
2018-11-28T01:37:44.958Z,1.00
2018-11-28T01:40:16.356Z,1.00
2018-11-28T01:42:44.750Z,1.00
2018-11-28T01:45:15.073Z,0.90
2018-11-28T01:47:43.633Z,1.00
2018-11-28T01:50:13.954Z,1.00
2018-11-28T01:52:42.374Z,1.00
2018-11-28T01:55:11.749Z,1.00
2018-11-28T01:57:40.164Z,1.00
2018-11-28T02:00:12.713Z,1.00
2018-11-28T02:02:41.218Z,1.00
2018-11-28T02:05:10.467Z,1.00
2018-11-28T02:07:38.883Z,1.00
2018-11-28T02:10:09.560Z,1.10
2018-11-28T02:12:37.929Z,1.00
2018-11-28T02:15:08.426Z,1.00
2018-11-28T02:17:36.828Z,1.10
2018-11-28T02:20:07.804Z,1.00
2018-11-28T02:22:36.207Z,0.90
2018-11-28T02:25:04.646Z,1.00
2018-11-28T02:27:33.101Z,0.90
2018-11-28T02:30:01.615Z,0.90
2018-11-28T02:32:30.031Z,0.90
2018-11-28T02:34:58.434Z,1.00
2018-11-28T02:37:26.848Z,1.00
2018-11-28T02:39:55.289Z,1.00
2018-11-28T02:42:23.780Z,0.90
2018-11-28T02:44:52.203Z,0.80
2018-11-28T02:47:20.582Z,0.90
2018-11-28T02:49:49.007Z,0.80
2018-11-28T02:52:17.421Z,0.90
2018-11-28T02:54:45.850Z,0.80
2018-11-28T02:57:14.267Z,0.90
2018-11-28T02:59:42.731Z,0.80
2018-11-28T03:02:11.114Z,0.80
2018-11-28T03:04:39.542Z,0.90
2018-11-28T03:07:07.934Z,0.80
2018-11-28T03:09:36.342Z,0.80
2018-11-28T03:12:05.291Z,0.70
2018-11-28T03:14:33.907Z,0.70
2018-11-28T03:17:02.305Z,0.80
2018-11-28T03:19:30.731Z,0.70
2018-11-28T03:21:59.208Z,0.80
2018-11-28T03:24:27.595Z,0.70
2018-11-28T03:26:56.050Z,0.80
2018-11-28T03:29:24.443Z,0.80
2018-11-28T03:31:52.946Z,0.80
2018-11-28T03:34:21.338Z,0.80
2018-11-28T03:36:49.717Z,0.70
2018-11-28T03:39:18.103Z,0.70
2018-11-28T03:41:46.546Z,0.80
2018-11-28T03:44:14.973Z,0.80
2018-11-28T03:46:43.365Z,0.80
2018-11-28T03:49:11.806Z,0.80
2018-11-28T03:51:40.222Z,0.80
2018-11-28T03:54:08.828Z,0.80
2018-11-28T03:56:37.244Z,0.80
2018-11-28T03:59:06.055Z,0.80
2018-11-28T04:01:35.464Z,0.80
2018-11-28T04:04:03.907Z,0.80
2018-11-28T04:06:32.333Z,0.80
2018-11-28T04:09:00.715Z,0.90
2018-11-28T04:11:29.203Z,0.90
2018-11-28T04:13:57.586Z,0.90
2018-11-28T04:16:25.959Z,0.90
2018-11-28T04:18:54.370Z,0.90
2018-11-28T04:21:23.847Z,0.90
2018-11-28T04:23:52.279Z,0.90
2018-11-28T04:26:20.751Z,1.00
2018-11-28T04:28:49.167Z,1.00
2018-11-28T04:31:18.587Z,1.00
2018-11-28T04:33:47.003Z,1.00
2018-11-28T04:36:15.402Z,1.00
2018-11-28T04:38:43.789Z,0.90
2018-11-28T04:41:12.192Z,1.00
2018-11-28T04:43:40.604Z,1.00
2018-11-28T04:46:09.030Z,1.00
2018-11-28T04:48:37.423Z,1.00
2018-11-28T04:51:07.030Z,0.90
2018-11-28T04:53:35.620Z,0.90
2018-11-28T04:56:04.201Z,0.90
2018-11-28T04:58:32.784Z,0.90
2018-11-28T05:01:01.455Z,1.00
2018-11-28T05:03:29.951Z,1.00
2018-11-28T05:05:58.335Z,1.00
2018-11-28T05:08:26.748Z,1.00
2018-11-28T05:10:56.223Z,1.10
2018-11-28T05:13:24.598Z,1.00
2018-11-28T05:15:53.517Z,1.00
2018-11-28T05:18:21.930Z,1.00
2018-11-28T05:20:54.688Z,1.00
2018-11-28T05:23:23.087Z,1.00
2018-11-28T05:25:51.508Z,1.00
2018-11-28T05:28:19.882Z,1.00
2018-11-28T05:30:52.354Z,1.00
2018-11-28T05:33:20.782Z,1.00
2018-11-28T05:35:49.199Z,1.00
2018-11-28T05:38:17.623Z,1.10
2018-11-28T05:40:46.165Z,1.00
2018-11-28T05:43:14.582Z,1.00
2018-11-28T05:45:42.979Z,1.00
2018-11-28T05:48:11.407Z,1.00
2018-11-28T05:50:39.899Z,1.10
2018-11-28T05:53:08.297Z,1.00
2018-11-28T05:55:37.098Z,1.00
2018-11-28T05:58:06.260Z,1.00
2018-11-28T06:00:36.853Z,0.90
2018-11-28T06:03:06.611Z,1.00
2018-11-28T06:05:35.027Z,0.90
2018-11-28T06:08:03.429Z,0.90
2018-11-28T06:10:35.283Z,1.00
2018-11-28T06:13:03.704Z,1.00
2018-11-28T06:15:32.163Z,1.00
2018-11-28T06:18:00.573Z,1.00
2018-11-28T06:20:31.015Z,1.00
2018-11-28T06:22:59.453Z,1.00
2018-11-28T06:25:27.847Z,1.00
2018-11-28T06:27:56.218Z,1.00
2018-11-28T06:30:28.309Z,1.00
2018-11-28T06:32:56.714Z,1.00
2018-11-28T06:35:25.127Z,1.00
2018-11-28T06:37:53.558Z,1.00
2018-11-28T06:40:24.329Z,1.10
2018-11-28T06:42:50.427Z,1.10
2018-11-28T06:45:21.955Z,1.10
2018-11-28T06:47:50.356Z,1.10
2018-11-28T06:50:19.630Z,1.00
2018-11-28T06:52:50.165Z,1.00
2018-11-28T06:55:19.775Z,1.10
2018-11-28T06:57:48.183Z,1.00
2018-11-28T07:00:19.664Z,1.10
2018-11-28T07:02:48.791Z,1.10
2018-11-28T07:05:17.291Z,1.10
2018-11-28T07:07:45.746Z,1.10
2018-11-28T07:10:15.186Z,1.10
2018-11-28T07:12:43.594Z,1.10
2018-11-28T07:15:13.045Z,1.10
2018-11-28T07:17:41.853Z,1.20
2018-11-28T07:20:20.451Z,1.20
2018-11-28T07:22:48.860Z,1.20
2018-11-28T07:25:18.954Z,1.20
2018-11-28T07:27:48.236Z,1.20
2018-11-28T07:30:24.116Z,1.30
2018-11-28T07:32:54.123Z,1.30
2018-11-28T07:35:22.581Z,1.30
2018-11-28T07:37:51.027Z,1.30
2018-11-28T07:40:23.589Z,1.40
2018-11-28T07:42:56.022Z,1.30
2018-11-28T07:45:24.408Z,1.40
2018-11-28T07:47:52.807Z,1.40
2018-11-28T07:50:26.687Z,1.20
2018-11-28T07:52:55.070Z,1.80
2018-11-28T07:55:23.467Z,1.50
2018-11-28T07:57:51.910Z,1.60
2018-11-28T08:00:20.402Z,1.70
2018-11-28T08:02:48.816Z,1.80
2018-11-28T08:05:17.251Z,1.90
2018-11-28T08:07:45.634Z,1.90
2018-11-28T08:10:20.867Z,2.10
2018-11-28T08:12:50.845Z,2.20
2018-11-28T08:15:19.281Z,2.10
2018-11-28T08:17:47.702Z,2.10
2018-11-28T08:20:17.202Z,2.30
2018-11-28T08:22:45.771Z,2.40
2018-11-28T08:25:16.174Z,2.60
2018-11-28T08:27:45.455Z,2.50
2018-11-28T08:30:19.748Z,2.60
2018-11-28T08:32:46.783Z,2.50
2018-11-28T08:35:15.263Z,2.60
2018-11-28T08:37:43.698Z,2.90
2018-11-28T08:40:15.394Z,2.90
2018-11-28T08:42:43.909Z,2.70
2018-11-28T08:45:13.653Z,2.70
2018-11-28T08:47:42.079Z,2.70
2018-11-28T08:50:14.832Z,2.80
2018-11-28T08:52:43.320Z,2.80
2018-11-28T08:55:12.678Z,2.70
2018-11-28T08:57:41.123Z,2.70
2018-11-28T09:00:18.851Z,2.80
2018-11-28T09:02:48.286Z,2.90
2018-11-28T09:05:16.680Z,3.00
2018-11-28T09:07:45.083Z,3.10
2018-11-28T09:10:15.522Z,3.10
2018-11-28T09:12:44.266Z,3.20
2018-11-28T09:15:25.659Z,3.20
2018-11-28T09:17:54.096Z,3.30
2018-11-28T09:20:22.538Z,3.20
2018-11-28T09:22:51.016Z,3.70
2018-11-28T09:25:19.754Z,3.70
2018-11-28T09:27:49.247Z,3.10
2018-11-28T09:30:18.574Z,3.00
2018-11-28T09:32:47.546Z,3.50
2018-11-28T09:35:16.163Z,3.40
2018-11-28T09:37:45.808Z,2.90
2018-11-28T09:40:24.335Z,3.40
2018-11-28T09:42:57.742Z,3.40
2018-11-28T09:45:26.202Z,3.50
2018-11-28T09:47:54.651Z,3.60
2018-11-28T09:50:25.058Z,3.50
2018-11-28T09:52:53.529Z,3.40
2018-11-28T09:55:23.115Z,4.20
2018-11-28T09:57:51.555Z,3.80
2018-11-28T10:00:24.198Z,4.90
2018-11-28T10:02:53.867Z,3.70
2018-11-28T10:05:23.505Z,4.10
2018-11-28T10:07:51.931Z,4.10
2018-11-28T10:10:21.352Z,3.80
2018-11-28T10:12:50.310Z,4.00
2018-11-28T10:15:21.442Z,3.90
2018-11-28T10:17:49.825Z,3.90
2018-11-28T10:20:25.672Z,4.20
2018-11-28T10:22:54.083Z,4.20
2018-11-28T10:25:24.263Z,4.40
2018-11-28T10:27:57.762Z,4.60
2018-11-28T10:30:35.639Z,4.60
2018-11-28T10:33:06.047Z,4.40
2018-11-28T10:35:34.938Z,4.40
2018-11-28T10:38:03.360Z,4.40
2018-11-28T10:40:32.818Z,4.40
2018-11-28T10:43:01.407Z,4.40
2018-11-28T10:45:30.483Z,4.20
2018-11-28T10:47:59.172Z,4.20
2018-11-28T10:50:27.714Z,4.10
2018-11-28T10:52:56.138Z,4.10
2018-11-28T10:55:25.494Z,4.40
2018-11-28T10:57:53.902Z,4.20
2018-11-28T11:00:45.522Z,4.60
2018-11-28T11:03:19.354Z,4.90
2018-11-28T11:05:53.107Z,5.00
2018-11-28T11:08:31.684Z,5.40
2018-11-28T11:11:05.569Z,5.90
2018-11-28T11:13:39.343Z,5.60
2018-11-28T11:16:07.707Z,5.40
2018-11-28T11:18:36.178Z,5.10
2018-11-28T11:21:07.703Z,5.20
2018-11-28T11:23:36.118Z,5.00
2018-11-28T11:26:04.538Z,4.90
2018-11-28T11:28:32.966Z,5.10
2018-11-28T11:31:06.895Z,4.90
2018-11-28T11:33:35.310Z,5.00
2018-11-28T11:36:03.739Z,4.80
2018-11-28T11:38:32.131Z,4.70
2018-11-28T11:41:00.562Z,4.80
2018-11-28T11:43:28.926Z,4.80
2018-11-28T11:45:57.371Z,4.90
2018-11-28T11:48:25.967Z,4.90
2018-11-28T11:51:03.306Z,4.90
2018-11-28T11:53:31.877Z,5.00
2018-11-28T11:56:00.330Z,5.50
2018-11-28T11:58:28.727Z,5.40
2018-11-28T12:00:57.266Z,5.40
2018-11-28T12:03:25.696Z,5.50
2018-11-28T12:05:57.383Z,5.70
2018-11-28T12:08:26.775Z,5.60
2018-11-28T12:10:55.226Z,5.20
2018-11-28T12:13:23.714Z,5.60
2018-11-28T12:15:52.138Z,5.80
2018-11-28T12:18:20.538Z,5.60
2018-11-28T12:20:55.462Z,5.20
2018-11-28T12:23:23.854Z,5.30
2018-11-28T12:25:52.262Z,5.50
2018-11-28T12:28:20.638Z,5.40
2018-11-28T12:30:52.868Z,5.40
2018-11-28T12:33:21.259Z,5.50
2018-11-28T12:35:49.675Z,5.70
2018-11-28T12:38:18.061Z,5.20
2018-11-28T12:40:50.527Z,5.40
2018-11-28T12:43:18.993Z,5.40
2018-11-28T12:45:48.643Z,5.50
2018-11-28T12:48:19.127Z,5.20
2018-11-28T12:50:55.723Z,5.20
2018-11-28T12:53:24.120Z,5.10
2018-11-28T12:55:52.515Z,5.10
2018-11-28T12:58:21.421Z,5.20
2018-11-28T13:00:53.875Z,5.30
2018-11-28T13:03:22.261Z,5.40
2018-11-28T13:05:50.683Z,5.40
2018-11-28T13:08:20.099Z,5.40
2018-11-28T13:10:48.556Z,5.20
2018-11-28T13:13:18.091Z,5.40
2018-11-28T13:15:45.423Z,5.50
2018-11-28T13:18:13.825Z,5.70
2018-11-28T13:20:43.374Z,5.70
2018-11-28T13:23:13.729Z,6.00
2018-11-28T13:25:42.143Z,5.90
2018-11-28T13:28:10.538Z,6.00
2018-11-28T13:30:39.109Z,6.10
2018-11-28T13:33:08.299Z,5.80
2018-11-28T13:35:36.730Z,5.80
2018-11-28T13:40:38.841Z,6.60
2018-11-28T13:43:07.546Z,6.90
2018-11-28T13:45:37.547Z,7.60
2018-11-28T13:48:06.186Z,8.30
2018-11-28T13:52:01.207Z,8.60
2018-11-28T13:54:29.595Z,8.00
2018-11-28T13:56:59.784Z,8.30
2018-11-28T13:59:26.491Z,7.90
2018-11-28T14:01:54.951Z,7.50
2018-11-28T14:04:23.466Z,7.60
2018-11-28T14:09:20.121Z,9.30
2018-11-28T14:11:48.562Z,8.50
2018-11-28T14:14:16.954Z,8.80
2018-11-28T14:19:13.510Z,8.70
2018-11-28T14:21:41.987Z,7.90
2018-11-28T14:24:10.397Z,7.90
2018-11-28T14:26:38.815Z,7.40
2018-11-28T14:31:45.006Z,6.20
2018-11-28T14:34:13.463Z,6.00
2018-11-28T14:36:41.903Z,5.10
2018-11-28T14:39:10.307Z,5.00
2018-11-28T14:41:38.782Z,5.10
2018-11-28T14:44:07.202Z,4.90
2018-11-28T14:46:35.591Z,4.70
2018-11-28T14:49:04.002Z,4.60
2018-11-28T14:51:32.450Z,4.30
2018-11-28T14:54:00.847Z,4.20
2018-11-28T14:56:29.242Z,4.00
2018-11-28T14:58:57.686Z,4.00
2018-11-28T15:01:28.123Z,3.90
2018-11-28T15:03:56.659Z,3.80
2018-11-28T15:06:31.990Z,3.80
2018-11-28T15:09:05.846Z,3.60
2018-11-28T15:11:37.930Z,3.70
2018-11-28T15:14:06.323Z,3.50
2018-11-28T15:16:34.740Z,3.40
2018-11-28T15:19:03.118Z,3.00
2018-11-28T15:21:31.559Z,3.30
2018-11-28T15:23:59.972Z,3.40
2018-11-28T15:26:28.379Z,3.00
2018-11-28T15:28:56.757Z,3.10
2018-11-28T15:31:32.642Z,3.00
2018-11-28T15:34:01.020Z,3.00
2018-11-28T15:36:29.451Z,3.00
2018-11-28T15:38:57.811Z,2.90
2018-11-28T15:41:26.226Z,2.90
2018-11-28T15:43:54.642Z,2.90
2018-11-28T15:46:23.074Z,2.80
2018-11-28T15:48:51.527Z,2.90
2018-11-28T15:51:19.951Z,2.80
2018-11-28T15:53:48.361Z,2.80
2018-11-28T15:56:16.805Z,2.70
2018-11-28T15:58:45.251Z,2.70
2018-11-28T16:01:18.200Z,2.70
2018-11-28T16:03:46.577Z,2.70
2018-11-28T16:06:15.451Z,2.60
2018-11-28T16:08:43.859Z,2.60
2018-11-28T16:11:15.713Z,2.60
2018-11-28T16:13:44.095Z,2.60
2018-11-28T16:16:12.591Z,2.50
2018-11-28T16:18:40.967Z,2.50
2018-11-28T16:21:13.106Z,2.40
2018-11-28T16:23:41.516Z,2.50
2018-11-28T16:26:09.936Z,2.40
2018-11-28T16:28:38.338Z,2.40
2018-11-28T16:31:11.867Z,2.40
2018-11-28T16:33:40.274Z,2.30
2018-11-28T16:36:08.686Z,2.30
2018-11-28T16:38:37.095Z,2.20
2018-11-28T16:41:12.795Z,2.10
2018-11-28T16:43:41.219Z,2.10
2018-11-28T16:46:09.614Z,2.00
2018-11-28T16:48:38.016Z,2.00
2018-11-28T16:51:07.391Z,1.90
2018-11-28T16:53:36.039Z,2.00
2018-11-28T16:56:04.723Z,2.00
2018-11-28T16:58:33.159Z,2.00
2018-11-28T17:01:04.871Z,2.10
2018-11-28T17:03:33.278Z,2.30
2018-11-28T17:06:01.683Z,2.30
2018-11-28T17:08:30.074Z,2.40
2018-11-28T17:10:58.552Z,2.40
2018-11-28T17:13:27.011Z,2.40
2018-11-28T17:15:55.402Z,2.30
2018-11-28T17:18:23.766Z,2.30
2018-11-28T17:20:52.194Z,2.30
2018-11-28T17:23:20.606Z,2.30
2018-11-28T17:25:49.140Z,2.20
2018-11-28T17:28:17.566Z,2.10
2018-11-28T17:30:48.095Z,2.10
2018-11-28T17:33:16.506Z,2.10
2018-11-28T17:35:44.911Z,2.00
2018-11-28T17:38:13.304Z,1.90
2018-11-28T17:40:41.788Z,1.90
2018-11-28T17:43:10.186Z,1.80
2018-11-28T17:45:38.583Z,1.80
2018-11-28T17:48:07.095Z,1.80
2018-11-28T17:50:42.862Z,1.80
2018-11-28T17:53:12.366Z,1.70
2018-11-28T17:55:44.399Z,1.70
2018-11-28T17:58:12.845Z,1.60
2018-11-28T18:00:42.350Z,1.60
2018-11-28T18:03:10.750Z,1.50
2018-11-28T18:05:39.219Z,1.40
2018-11-28T18:08:08.455Z,1.40
2018-11-28T18:10:37.962Z,1.30
2018-11-28T18:13:10.354Z,1.30
2018-11-28T18:15:39.639Z,1.40
2018-11-28T18:18:09.536Z,1.30
2018-11-28T18:20:42.335Z,1.30
2018-11-28T18:23:10.863Z,1.20
2018-11-28T18:25:40.063Z,1.10
2018-11-28T18:28:08.911Z,1.10
2018-11-28T18:37:37.586Z,1.10
2018-11-28T18:40:06.786Z,0.90
2018-11-28T18:42:36.388Z,0.90
2018-11-28T18:45:04.346Z,0.80
2018-11-28T18:47:31.870Z,0.80
2018-11-28T18:49:59.398Z,0.80
2018-11-28T18:52:26.993Z,0.80
2018-11-28T18:54:54.561Z,0.70
2018-11-28T18:57:22.138Z,0.70
2018-11-28T18:59:49.673Z,0.60
2018-11-28T19:02:19.329Z,0.60
2018-11-28T19:04:46.829Z,0.70
2018-11-28T19:07:14.416Z,0.60
2018-11-28T19:09:49.582Z,0.70
2018-11-28T19:12:19.154Z,0.60
2018-11-28T19:14:46.700Z,0.60
2018-11-28T19:17:14.289Z,0.60
2018-11-28T19:19:41.802Z,0.50
2018-11-28T19:22:10.437Z,0.60
2018-11-28T19:24:37.952Z,0.50
2018-11-28T19:27:05.685Z,0.50
2018-11-28T19:29:33.251Z,0.60
2018-11-28T19:32:03.205Z,0.50
2018-11-28T19:34:30.795Z,0.50
2018-11-28T19:36:58.345Z,0.50
2018-11-28T19:39:25.850Z,0.60
2018-11-28T19:41:53.441Z,0.60
2018-11-28T19:44:20.966Z,0.60
2018-11-28T19:46:48.549Z,0.60
2018-11-28T19:49:16.081Z,0.50
2018-11-28T19:51:43.771Z,0.60
2018-11-28T19:54:11.376Z,0.60
2018-11-28T19:56:38.889Z,0.50
2018-11-28T19:59:07.513Z,0.50
2018-11-28T20:01:36.081Z,0.50
2018-11-28T20:04:03.654Z,0.50
2018-11-28T20:06:31.162Z,0.50
2018-11-28T20:08:58.747Z,0.50
2018-11-28T20:11:35.098Z,0.50
2018-11-28T20:14:02.642Z,0.60
2018-11-28T20:16:30.183Z,0.60
2018-11-28T20:18:57.686Z,0.60
2018-11-28T20:21:27.308Z,0.60
2018-11-28T20:23:54.838Z,0.50
2018-11-28T20:26:22.363Z,0.50
2018-11-28T20:28:49.881Z,0.60
2018-11-28T20:31:27.436Z,0.50
2018-11-28T20:33:54.965Z,0.50
2018-11-28T20:36:22.511Z,0.60
2018-11-28T20:38:50.023Z,0.60
2018-11-28T20:41:17.573Z,0.60
2018-11-28T20:43:45.102Z,0.60
2018-11-28T20:48:46.595Z,0.60
2018-11-28T20:51:24.906Z,0.60
2018-11-28T20:53:52.438Z,0.60
2018-11-28T20:56:19.969Z,0.60
2018-11-28T20:58:47.533Z,0.60
2018-11-28T21:01:15.150Z,0.70
2018-11-28T21:03:42.670Z,0.70
2018-11-28T21:08:44.145Z,0.70
2018-11-28T21:11:12.759Z,0.60
2018-11-28T21:13:40.282Z,0.50
2018-11-28T21:16:07.854Z,0.60
2018-11-28T21:18:35.341Z,0.60
2018-11-28T21:21:03.061Z,0.70
2018-11-28T21:23:30.562Z,0.60
2018-11-28T21:25:58.098Z,0.70
2018-11-28T21:28:25.590Z,0.70
2018-11-28T21:30:54.189Z,0.70
2018-11-28T21:33:21.737Z,0.70
2018-11-28T21:35:50.031Z,0.70
2018-11-28T21:38:17.536Z,0.70
2018-11-28T21:40:47.081Z,0.70
2018-11-28T21:43:14.589Z,0.70
2018-11-28T21:45:42.133Z,0.80
2018-11-28T21:48:09.652Z,0.80
2018-11-28T21:50:37.179Z,0.80
2018-11-28T21:53:05.466Z,0.80
2018-11-28T21:55:32.999Z,0.90
2018-11-28T21:58:00.522Z,0.80
2018-11-28T22:00:28.155Z,0.80
2018-11-28T22:02:55.703Z,0.80
2018-11-28T22:05:23.446Z,0.80
2018-11-28T22:07:51.003Z,0.80
2018-11-28T22:10:21.985Z,0.80
2018-11-28T22:12:49.522Z,0.70
2018-11-28T22:15:17.550Z,0.70
2018-11-28T22:17:45.685Z,0.70
2018-11-28T22:20:13.621Z,0.70
2018-11-28T22:22:41.200Z,0.70
2018-11-28T22:25:10.343Z,0.70
2018-11-28T22:27:37.874Z,0.60
2018-11-28T22:30:05.633Z,0.60
2018-11-28T22:32:36.457Z,0.60
2018-11-28T22:35:10.540Z,0.60
2018-11-28T22:37:38.045Z,0.60
2018-11-28T22:40:10.161Z,0.60
2018-11-28T22:42:37.768Z,0.60
2018-11-28T22:45:07.250Z,0.60
2018-11-28T22:47:34.822Z,0.60
2018-11-28T22:50:02.358Z,0.60
2018-11-28T22:52:33.327Z,0.60
2018-11-28T22:55:00.842Z,0.50
2018-11-28T22:57:28.368Z,0.60
2018-11-28T22:59:55.903Z,0.50
2018-11-28T23:02:43.022Z,0.60
2018-11-28T23:05:10.541Z,0.60
2018-11-28T23:07:38.038Z,0.60
2018-11-28T23:10:05.634Z,0.60
2018-11-28T23:12:40.918Z,0.60
2018-11-28T23:15:08.446Z,0.60
2018-11-28T23:17:35.985Z,0.60
2018-11-28T23:20:03.564Z,0.60
2018-11-28T23:22:34.627Z,0.50
2018-11-28T23:25:02.134Z,0.60
2018-11-28T23:27:29.647Z,0.60
2018-11-28T23:29:57.189Z,0.50
2018-11-28T23:32:24.773Z,0.50
2018-11-28T23:34:52.303Z,0.50
2018-11-28T23:37:19.837Z,0.50
2018-11-28T23:39:47.384Z,0.50
2018-11-28T23:42:15.938Z,0.50
2018-11-28T23:44:43.490Z,0.50
2018-11-28T23:47:11.026Z,0.50
2018-11-28T23:49:38.566Z,0.40
2018-11-28T23:52:06.175Z,0.40
2018-11-28T23:54:33.753Z,0.30
2018-11-28T23:57:01.269Z,0.40
2018-11-28T23:59:28.790Z,0.40
